sensor_id;sensor_type;location;lat;lon;timestamp;temperature;humidity
6810;DHT22;3443;48.812;9.112;2022-10-18T00:01:15;14.20;99.90
6810;DHT22;3443;48.812;9.112;2022-10-18T00:03:40;14.20;99.90
6810;DHT22;3443;48.812;9.112;2022-10-18T00:06:07;14.20;99.90
6810;DHT22;3443;48.812;9.112;2022-10-18T00:08:35;14.20;99.90
6810;DHT22;3443;48.812;9.112;2022-10-18T00:11:01;14.20;99.90
6810;DHT22;3443;48.812;9.112;2022-10-18T00:13:27;14.10;99.90
6810;DHT22;3443;48.812;9.112;2022-10-18T00:15:56;14.10;99.90
6810;DHT22;3443;48.812;9.112;2022-10-18T00:18:22;14.10;99.90
6810;DHT22;3443;48.812;9.112;2022-10-18T00:21:06;14.10;99.90
6810;DHT22;3443;48.812;9.112;2022-10-18T00:23:33;14.10;99.90
6810;DHT22;3443;48.812;9.112;2022-10-18T00:26:12;14.10;99.90
6810;DHT22;3443;48.812;9.112;2022-10-18T00:28:39;14.00;99.90
6810;DHT22;3443;48.812;9.112;2022-10-18T00:31:12;14.10;99.90
6810;DHT22;3443;48.812;9.112;2022-10-18T00:33:39;14.00;99.90
6810;DHT22;3443;48.812;9.112;2022-10-18T00:36:05;14.00;99.90
6810;DHT22;3443;48.812;9.112;2022-10-18T00:38:31;14.00;99.90
6810;DHT22;3443;48.812;9.112;2022-10-18T00:40:57;14.00;99.90
6810;DHT22;3443;48.812;9.112;2022-10-18T00:43:23;14.00;99.90
6810;DHT22;3443;48.812;9.112;2022-10-18T00:45:48;14.00;99.90
6810;DHT22;3443;48.812;9.112;2022-10-18T00:48:16;14.00;99.90
6810;DHT22;3443;48.812;9.112;2022-10-18T00:50:43;14.00;99.90
6810;DHT22;3443;48.812;9.112;2022-10-18T00:53:14;14.00;99.90
6810;DHT22;3443;48.812;9.112;2022-10-18T00:55:40;14.00;99.90
6810;DHT22;3443;48.812;9.112;2022-10-18T00:58:06;14.00;99.90
6810;DHT22;3443;48.812;9.112;2022-10-18T01:00:33;14.10;99.90
6810;DHT22;3443;48.812;9.112;2022-10-18T01:03:03;14.10;99.90
6810;DHT22;3443;48.812;9.112;2022-10-18T01:05:30;14.10;99.90
6810;DHT22;3443;48.812;9.112;2022-10-18T01:14:10;14.20;99.90
6810;DHT22;3443;48.812;9.112;2022-10-18T01:16:46;14.20;99.90
6810;DHT22;3443;48.812;9.112;2022-10-18T01:22:23;14.20;99.90
6810;DHT22;3443;48.812;9.112;2022-10-18T01:24:59;14.20;99.90
6810;DHT22;3443;48.812;9.112;2022-10-18T01:30:31;14.30;99.90
6810;DHT22;3443;48.812;9.112;2022-10-18T01:33:07;14.30;99.90
6810;DHT22;3443;48.812;9.112;2022-10-18T01:35:39;14.40;99.90
6810;DHT22;3443;48.812;9.112;2022-10-18T01:38:09;14.40;99.90
6810;DHT22;3443;48.812;9.112;2022-10-18T01:40:37;14.40;99.90
6810;DHT22;3443;48.812;9.112;2022-10-18T01:43:05;14.40;99.90
6810;DHT22;3443;48.812;9.112;2022-10-18T01:45:32;14.40;99.90
6810;DHT22;3443;48.812;9.112;2022-10-18T01:47:58;14.40;99.90
6810;DHT22;3443;48.812;9.112;2022-10-18T01:50:33;14.50;99.90
6810;DHT22;3443;48.812;9.112;2022-10-18T01:52:59;14.50;99.90
6810;DHT22;3443;48.812;9.112;2022-10-18T01:58:18;14.40;99.90
6810;DHT22;3443;48.812;9.112;2022-10-18T02:00:49;14.40;99.90
6810;DHT22;3443;48.812;9.112;2022-10-18T02:03:23;14.40;99.90
6810;DHT22;3443;48.812;9.112;2022-10-18T02:06:07;14.40;99.90
6810;DHT22;3443;48.812;9.112;2022-10-18T02:08:42;14.40;99.90
6810;DHT22;3443;48.812;9.112;2022-10-18T02:11:13;14.40;99.90
6810;DHT22;3443;48.812;9.112;2022-10-18T02:13:49;14.40;99.90
6810;DHT22;3443;48.812;9.112;2022-10-18T02:16:43;14.40;99.90
6810;DHT22;3443;48.812;9.112;2022-10-18T02:19:45;14.50;99.90
6810;DHT22;3443;48.812;9.112;2022-10-18T02:22:12;14.50;99.90
6810;DHT22;3443;48.812;9.112;2022-10-18T02:24:43;14.60;99.90
6810;DHT22;3443;48.812;9.112;2022-10-18T02:27:11;14.50;99.90
6810;DHT22;3443;48.812;9.112;2022-10-18T02:29:38;14.50;99.90
6810;DHT22;3443;48.812;9.112;2022-10-18T02:32:33;14.50;99.90
6810;DHT22;3443;48.812;9.112;2022-10-18T02:35:07;14.50;99.90
6810;DHT22;3443;48.812;9.112;2022-10-18T02:37:39;14.50;99.90
6810;DHT22;3443;48.812;9.112;2022-10-18T02:40:07;14.50;99.90
6810;DHT22;3443;48.812;9.112;2022-10-18T02:42:43;14.50;99.90
6810;DHT22;3443;48.812;9.112;2022-10-18T02:45:10;14.50;99.90
6810;DHT22;3443;48.812;9.112;2022-10-18T02:47:36;14.60;99.90
6810;DHT22;3443;48.812;9.112;2022-10-18T02:50:02;14.50;99.90
6810;DHT22;3443;48.812;9.112;2022-10-18T02:52:28;14.60;99.90
6810;DHT22;3443;48.812;9.112;2022-10-18T02:54:54;14.60;99.90
6810;DHT22;3443;48.812;9.112;2022-10-18T02:57:19;14.60;99.90
6810;DHT22;3443;48.812;9.112;2022-10-18T02:59:45;14.70;99.90
6810;DHT22;3443;48.812;9.112;2022-10-18T03:02:11;14.70;99.90
6810;DHT22;3443;48.812;9.112;2022-10-18T03:04:37;14.70;99.90
6810;DHT22;3443;48.812;9.112;2022-10-18T03:07:02;14.70;99.90
6810;DHT22;3443;48.812;9.112;2022-10-18T03:09:28;14.60;99.90
6810;DHT22;3443;48.812;9.112;2022-10-18T03:11:54;14.70;99.90
6810;DHT22;3443;48.812;9.112;2022-10-18T03:14:19;14.70;99.90
6810;DHT22;3443;48.812;9.112;2022-10-18T03:16:45;14.60;99.90
6810;DHT22;3443;48.812;9.112;2022-10-18T03:19:11;14.70;99.90
6810;DHT22;3443;48.812;9.112;2022-10-18T03:21:36;14.80;99.90
6810;DHT22;3443;48.812;9.112;2022-10-18T03:24:02;14.70;99.90
6810;DHT22;3443;48.812;9.112;2022-10-18T03:26:28;14.80;99.90
6810;DHT22;3443;48.812;9.112;2022-10-18T03:28:54;14.80;99.90
6810;DHT22;3443;48.812;9.112;2022-10-18T03:31:20;14.90;99.90
6810;DHT22;3443;48.812;9.112;2022-10-18T03:33:46;14.90;99.90
6810;DHT22;3443;48.812;9.112;2022-10-18T03:36:11;14.90;99.90
6810;DHT22;3443;48.812;9.112;2022-10-18T03:38:37;14.90;99.90
6810;DHT22;3443;48.812;9.112;2022-10-18T03:41:03;14.90;99.90
6810;DHT22;3443;48.812;9.112;2022-10-18T03:43:29;14.90;99.90
6810;DHT22;3443;48.812;9.112;2022-10-18T03:45:55;14.90;99.90
6810;DHT22;3443;48.812;9.112;2022-10-18T03:48:20;14.90;99.90
6810;DHT22;3443;48.812;9.112;2022-10-18T03:50:46;14.90;99.90
6810;DHT22;3443;48.812;9.112;2022-10-18T03:53:12;14.80;99.90
6810;DHT22;3443;48.812;9.112;2022-10-18T03:55:38;14.80;99.90
6810;DHT22;3443;48.812;9.112;2022-10-18T03:58:04;14.80;99.90
6810;DHT22;3443;48.812;9.112;2022-10-18T04:00:30;14.70;99.90
6810;DHT22;3443;48.812;9.112;2022-10-18T04:02:55;14.70;99.90
6810;DHT22;3443;48.812;9.112;2022-10-18T04:05:21;14.60;99.90
6810;DHT22;3443;48.812;9.112;2022-10-18T04:07:53;14.70;99.90
6810;DHT22;3443;48.812;9.112;2022-10-18T04:10:19;14.70;99.90
6810;DHT22;3443;48.812;9.112;2022-10-18T04:12:45;14.80;99.90
6810;DHT22;3443;48.812;9.112;2022-10-18T04:15:11;14.80;99.90
6810;DHT22;3443;48.812;9.112;2022-10-18T04:17:36;14.90;99.90
6810;DHT22;3443;48.812;9.112;2022-10-18T04:20:02;14.90;99.90
6810;DHT22;3443;48.812;9.112;2022-10-18T04:22:28;14.90;99.90
6810;DHT22;3443;48.812;9.112;2022-10-18T04:24:54;14.90;99.90
6810;DHT22;3443;48.812;9.112;2022-10-18T04:27:22;14.80;99.90
6810;DHT22;3443;48.812;9.112;2022-10-18T04:29:48;14.80;99.90
6810;DHT22;3443;48.812;9.112;2022-10-18T04:32:14;14.80;99.90
6810;DHT22;3443;48.812;9.112;2022-10-18T04:34:39;14.90;99.90
6810;DHT22;3443;48.812;9.112;2022-10-18T04:37:05;14.90;99.90
6810;DHT22;3443;48.812;9.112;2022-10-18T04:39:31;15.00;99.90
6810;DHT22;3443;48.812;9.112;2022-10-18T04:41:56;15.10;99.90
6810;DHT22;3443;48.812;9.112;2022-10-18T04:44:22;15.20;99.90
6810;DHT22;3443;48.812;9.112;2022-10-18T04:46:48;15.30;99.90
6810;DHT22;3443;48.812;9.112;2022-10-18T04:49:14;15.40;99.90
6810;DHT22;3443;48.812;9.112;2022-10-18T04:51:39;15.50;99.90
6810;DHT22;3443;48.812;9.112;2022-10-18T04:54:05;15.50;99.90
6810;DHT22;3443;48.812;9.112;2022-10-18T04:56:31;15.50;99.90
6810;DHT22;3443;48.812;9.112;2022-10-18T04:58:57;15.60;99.90
6810;DHT22;3443;48.812;9.112;2022-10-18T05:01:23;15.60;99.90
6810;DHT22;3443;48.812;9.112;2022-10-18T05:03:53;15.60;99.90
6810;DHT22;3443;48.812;9.112;2022-10-18T05:06:20;15.70;99.90
6810;DHT22;3443;48.812;9.112;2022-10-18T05:08:46;15.70;99.90
6810;DHT22;3443;48.812;9.112;2022-10-18T05:11:11;15.80;99.90
6810;DHT22;3443;48.812;9.112;2022-10-18T05:13:37;15.80;99.90
6810;DHT22;3443;48.812;9.112;2022-10-18T05:16:04;15.80;99.90
6810;DHT22;3443;48.812;9.112;2022-10-18T05:18:29;15.90;99.90
6810;DHT22;3443;48.812;9.112;2022-10-18T05:20:56;15.90;99.90
6810;DHT22;3443;48.812;9.112;2022-10-18T05:23:21;15.90;99.90
6810;DHT22;3443;48.812;9.112;2022-10-18T05:25:47;15.80;99.90
6810;DHT22;3443;48.812;9.112;2022-10-18T05:28:13;15.90;99.90
6810;DHT22;3443;48.812;9.112;2022-10-18T05:30:40;15.90;99.90
6810;DHT22;3443;48.812;9.112;2022-10-18T05:33:06;15.80;99.90
6810;DHT22;3443;48.812;9.112;2022-10-18T05:35:32;15.80;99.90
6810;DHT22;3443;48.812;9.112;2022-10-18T05:38:00;15.80;99.90
6810;DHT22;3443;48.812;9.112;2022-10-18T05:40:26;15.70;99.90
6810;DHT22;3443;48.812;9.112;2022-10-18T05:42:52;15.70;99.90
6810;DHT22;3443;48.812;9.112;2022-10-18T05:45:17;15.80;99.90
6810;DHT22;3443;48.812;9.112;2022-10-18T05:47:43;15.80;99.90
6810;DHT22;3443;48.812;9.112;2022-10-18T05:50:09;15.80;99.90
6810;DHT22;3443;48.812;9.112;2022-10-18T05:52:35;15.80;99.90
6810;DHT22;3443;48.812;9.112;2022-10-18T05:55:01;15.90;99.90
6810;DHT22;3443;48.812;9.112;2022-10-18T05:57:27;15.90;99.90
6810;DHT22;3443;48.812;9.112;2022-10-18T05:59:53;15.90;99.90
6810;DHT22;3443;48.812;9.112;2022-10-18T06:02:18;15.80;99.90
6810;DHT22;3443;48.812;9.112;2022-10-18T06:04:44;16.00;99.90
6810;DHT22;3443;48.812;9.112;2022-10-18T06:07:10;16.00;99.90
6810;DHT22;3443;48.812;9.112;2022-10-18T06:09:37;16.20;99.90
6810;DHT22;3443;48.812;9.112;2022-10-18T06:12:03;16.30;99.90
6810;DHT22;3443;48.812;9.112;2022-10-18T06:14:29;16.20;99.90
6810;DHT22;3443;48.812;9.112;2022-10-18T06:16:55;16.20;99.90
6810;DHT22;3443;48.812;9.112;2022-10-18T06:19:23;16.10;99.90
6810;DHT22;3443;48.812;9.112;2022-10-18T06:21:49;16.20;99.90
6810;DHT22;3443;48.812;9.112;2022-10-18T06:24:15;16.30;99.90
6810;DHT22;3443;48.812;9.112;2022-10-18T06:26:40;16.40;99.90
6810;DHT22;3443;48.812;9.112;2022-10-18T06:29:06;16.50;99.90
6810;DHT22;3443;48.812;9.112;2022-10-18T06:31:32;16.70;99.90
6810;DHT22;3443;48.812;9.112;2022-10-18T06:33:58;16.70;99.90
6810;DHT22;3443;48.812;9.112;2022-10-18T06:36:23;16.80;99.90
6810;DHT22;3443;48.812;9.112;2022-10-18T06:38:49;16.80;99.90
6810;DHT22;3443;48.812;9.112;2022-10-18T06:41:15;16.80;99.90
6810;DHT22;3443;48.812;9.112;2022-10-18T06:43:42;16.80;99.90
6810;DHT22;3443;48.812;9.112;2022-10-18T06:46:09;16.90;99.90
6810;DHT22;3443;48.812;9.112;2022-10-18T06:48:37;16.90;99.90
6810;DHT22;3443;48.812;9.112;2022-10-18T06:51:05;16.90;99.90
6810;DHT22;3443;48.812;9.112;2022-10-18T06:53:33;16.90;99.90
6810;DHT22;3443;48.812;9.112;2022-10-18T06:56:04;16.90;99.90
6810;DHT22;3443;48.812;9.112;2022-10-18T06:58:30;16.90;99.90
6810;DHT22;3443;48.812;9.112;2022-10-18T07:00:56;16.90;99.90
6810;DHT22;3443;48.812;9.112;2022-10-18T07:03:21;16.90;99.90
6810;DHT22;3443;48.812;9.112;2022-10-18T07:05:51;17.00;99.90
6810;DHT22;3443;48.812;9.112;2022-10-18T07:08:17;17.00;99.90
6810;DHT22;3443;48.812;9.112;2022-10-18T07:10:50;17.10;99.90
6810;DHT22;3443;48.812;9.112;2022-10-18T07:13:16;17.20;99.90
6810;DHT22;3443;48.812;9.112;2022-10-18T07:15:42;17.20;99.90
6810;DHT22;3443;48.812;9.112;2022-10-18T07:18:08;17.20;99.90
6810;DHT22;3443;48.812;9.112;2022-10-18T07:20:33;17.20;99.90
6810;DHT22;3443;48.812;9.112;2022-10-18T07:22:59;17.20;99.90
6810;DHT22;3443;48.812;9.112;2022-10-18T07:25:25;17.20;99.90
6810;DHT22;3443;48.812;9.112;2022-10-18T07:27:51;17.20;99.90
6810;DHT22;3443;48.812;9.112;2022-10-18T07:30:16;17.20;99.90
6810;DHT22;3443;48.812;9.112;2022-10-18T07:32:42;17.20;99.90
6810;DHT22;3443;48.812;9.112;2022-10-18T07:35:08;17.20;99.90
6810;DHT22;3443;48.812;9.112;2022-10-18T07:37:34;17.30;99.90
6810;DHT22;3443;48.812;9.112;2022-10-18T07:39:59;17.30;99.90
6810;DHT22;3443;48.812;9.112;2022-10-18T07:42:25;17.40;99.90
6810;DHT22;3443;48.812;9.112;2022-10-18T07:44:51;17.40;99.90
6810;DHT22;3443;48.812;9.112;2022-10-18T07:47:16;17.50;99.90
6810;DHT22;3443;48.812;9.112;2022-10-18T07:49:42;17.60;99.90
6810;DHT22;3443;48.812;9.112;2022-10-18T07:52:08;17.70;99.90
6810;DHT22;3443;48.812;9.112;2022-10-18T07:54:34;17.80;99.90
6810;DHT22;3443;48.812;9.112;2022-10-18T07:57:00;17.80;99.90
6810;DHT22;3443;48.812;9.112;2022-10-18T07:59:25;17.90;99.90
6810;DHT22;3443;48.812;9.112;2022-10-18T08:01:51;18.00;99.90
6810;DHT22;3443;48.812;9.112;2022-10-18T08:04:17;18.00;99.90
6810;DHT22;3443;48.812;9.112;2022-10-18T08:06:42;18.10;99.90
6810;DHT22;3443;48.812;9.112;2022-10-18T08:09:08;18.10;99.90
6810;DHT22;3443;48.812;9.112;2022-10-18T08:11:34;18.10;99.90
6810;DHT22;3443;48.812;9.112;2022-10-18T08:14:00;18.10;99.90
6810;DHT22;3443;48.812;9.112;2022-10-18T08:16:27;18.10;99.90
6810;DHT22;3443;48.812;9.112;2022-10-18T08:18:53;18.10;99.90
6810;DHT22;3443;48.812;9.112;2022-10-18T08:21:20;18.20;99.90
6810;DHT22;3443;48.812;9.112;2022-10-18T08:23:46;18.10;99.90
6810;DHT22;3443;48.812;9.112;2022-10-18T08:26:14;18.20;99.90
6810;DHT22;3443;48.812;9.112;2022-10-18T08:28:41;18.30;99.90
6810;DHT22;3443;48.812;9.112;2022-10-18T08:31:10;18.30;99.90
6810;DHT22;3443;48.812;9.112;2022-10-18T08:33:37;18.30;99.90
6810;DHT22;3443;48.812;9.112;2022-10-18T08:36:05;18.40;99.90
6810;DHT22;3443;48.812;9.112;2022-10-18T08:38:33;18.50;99.90
6810;DHT22;3443;48.812;9.112;2022-10-18T08:41:24;18.50;99.90
6810;DHT22;3443;48.812;9.112;2022-10-18T08:43:52;18.50;99.90
6810;DHT22;3443;48.812;9.112;2022-10-18T08:46:20;18.60;99.90
6810;DHT22;3443;48.812;9.112;2022-10-18T08:48:48;18.60;99.90
6810;DHT22;3443;48.812;9.112;2022-10-18T08:51:39;18.70;99.90
6810;DHT22;3443;48.812;9.112;2022-10-18T08:54:12;18.90;99.90
6810;DHT22;3443;48.812;9.112;2022-10-18T08:56:40;19.00;99.90
6810;DHT22;3443;48.812;9.112;2022-10-18T08:59:11;19.20;99.90
6810;DHT22;3443;48.812;9.112;2022-10-18T09:04:28;20.00;99.90
6810;DHT22;3443;48.812;9.112;2022-10-18T09:07:23;20.30;99.90
6810;DHT22;3443;48.812;9.112;2022-10-18T09:09:59;20.40;99.90
6810;DHT22;3443;48.812;9.112;2022-10-18T09:12:53;20.50;99.90
6810;DHT22;3443;48.812;9.112;2022-10-18T09:18:32;20.60;99.90
6810;DHT22;3443;48.812;9.112;2022-10-18T09:24:11;20.40;99.90
6810;DHT22;3443;48.812;9.112;2022-10-18T09:26:48;20.20;99.90
6810;DHT22;3443;48.812;9.112;2022-10-18T09:29:43;20.10;99.90
6810;DHT22;3443;48.812;9.112;2022-10-18T09:32:23;19.90;99.90
6810;DHT22;3443;48.812;9.112;2022-10-18T09:34:52;19.70;99.90
6810;DHT22;3443;48.812;9.112;2022-10-18T09:37:20;19.50;99.90
6810;DHT22;3443;48.812;9.112;2022-10-18T09:39:48;19.30;99.90
6810;DHT22;3443;48.812;9.112;2022-10-18T09:44:47;18.90;99.90
6810;DHT22;3443;48.812;9.112;2022-10-18T09:47:23;18.90;99.90
6810;DHT22;3443;48.812;9.112;2022-10-18T09:49:55;19.00;99.90
6810;DHT22;3443;48.812;9.112;2022-10-18T09:54:55;19.00;99.90
6810;DHT22;3443;48.812;9.112;2022-10-18T09:57:24;19.00;99.90
6810;DHT22;3443;48.812;9.112;2022-10-18T09:59:51;19.10;99.90
6810;DHT22;3443;48.812;9.112;2022-10-18T10:02:18;19.20;99.90
6810;DHT22;3443;48.812;9.112;2022-10-18T10:04:47;19.20;99.90
6810;DHT22;3443;48.812;9.112;2022-10-18T10:07:18;19.10;99.90
6810;DHT22;3443;48.812;9.112;2022-10-18T10:09:55;19.00;99.90
6810;DHT22;3443;48.812;9.112;2022-10-18T10:12:37;19.00;99.90
6810;DHT22;3443;48.812;9.112;2022-10-18T10:15:24;19.10;99.90
6810;DHT22;3443;48.812;9.112;2022-10-18T10:23:13;19.50;99.90
6810;DHT22;3443;48.812;9.112;2022-10-18T10:25:41;19.60;99.90
6810;DHT22;3443;48.812;9.112;2022-10-18T10:28:16;19.60;99.90
6810;DHT22;3443;48.812;9.112;2022-10-18T10:30:43;19.70;99.90
6810;DHT22;3443;48.812;9.112;2022-10-18T10:35:59;19.90;99.90
6810;DHT22;3443;48.812;9.112;2022-10-18T10:38:27;20.00;99.90
6810;DHT22;3443;48.812;9.112;2022-10-18T10:40:53;20.10;99.90
6810;DHT22;3443;48.812;9.112;2022-10-18T10:43:23;20.10;99.90
6810;DHT22;3443;48.812;9.112;2022-10-18T10:46:02;20.00;99.90
6810;DHT22;3443;48.812;9.112;2022-10-18T10:48:53;20.00;99.90
6810;DHT22;3443;48.812;9.112;2022-10-18T10:51:27;20.20;99.90
6810;DHT22;3443;48.812;9.112;2022-10-18T10:54:15;20.40;99.90
6810;DHT22;3443;48.812;9.112;2022-10-18T10:57:06;20.40;99.90
6810;DHT22;3443;48.812;9.112;2022-10-18T10:59:45;20.60;99.90
6810;DHT22;3443;48.812;9.112;2022-10-18T11:04:43;20.80;99.90
6810;DHT22;3443;48.812;9.112;2022-10-18T11:12:17;20.70;99.90
6810;DHT22;3443;48.812;9.112;2022-10-18T11:14:49;20.60;99.90
6810;DHT22;3443;48.812;9.112;2022-10-18T11:22:40;20.60;99.90
6810;DHT22;3443;48.812;9.112;2022-10-18T11:25:12;20.50;99.90
6810;DHT22;3443;48.812;9.112;2022-10-18T11:31:01;20.40;99.90
6810;DHT22;3443;48.812;9.112;2022-10-18T11:41:37;21.40;99.90
6810;DHT22;3443;48.812;9.112;2022-10-18T11:56:22;21.50;99.90
6810;DHT22;3443;48.812;9.112;2022-10-18T11:59:06;21.70;99.90
6810;DHT22;3443;48.812;9.112;2022-10-18T12:04:25;22.00;99.90
6810;DHT22;3443;48.812;9.112;2022-10-18T12:06:53;21.90;99.90
6810;DHT22;3443;48.812;9.112;2022-10-18T12:09:31;22.00;99.90
6810;DHT22;3443;48.812;9.112;2022-10-18T12:14:45;21.80;99.90
6810;DHT22;3443;48.812;9.112;2022-10-18T12:20:03;21.80;99.90
6810;DHT22;3443;48.812;9.112;2022-10-18T12:22:38;21.70;99.90
6810;DHT22;3443;48.812;9.112;2022-10-18T12:25:13;21.60;99.90
6810;DHT22;3443;48.812;9.112;2022-10-18T12:33:21;21.30;99.90
6810;DHT22;3443;48.812;9.112;2022-10-18T12:38:33;21.50;99.90
6810;DHT22;3443;48.812;9.112;2022-10-18T12:41:00;21.60;99.90
6810;DHT22;3443;48.812;9.112;2022-10-18T12:43:29;21.70;99.90
6810;DHT22;3443;48.812;9.112;2022-10-18T12:46:00;21.70;99.90
6810;DHT22;3443;48.812;9.112;2022-10-18T12:48:35;21.70;99.90
6810;DHT22;3443;48.812;9.112;2022-10-18T12:51:21;21.60;99.90
6810;DHT22;3443;48.812;9.112;2022-10-18T13:09:38;21.10;99.90
6810;DHT22;3443;48.812;9.112;2022-10-18T13:20:25;21.40;99.90
6810;DHT22;3443;48.812;9.112;2022-10-18T13:31:20;21.70;99.90
6810;DHT22;3443;48.812;9.112;2022-10-18T13:33:47;21.80;99.90
6810;DHT22;3443;48.812;9.112;2022-10-18T13:38:45;21.70;99.90
6810;DHT22;3443;48.812;9.112;2022-10-18T13:41:18;21.80;99.90
6810;DHT22;3443;48.812;9.112;2022-10-18T13:54:36;21.70;99.90
6810;DHT22;3443;48.812;9.112;2022-10-18T14:05:51;21.20;99.90
6810;DHT22;3443;48.812;9.112;2022-10-18T14:08:32;20.90;99.90
6810;DHT22;3443;48.812;9.112;2022-10-18T14:11:43;20.80;99.90
6810;DHT22;3443;48.812;9.112;2022-10-18T14:13:53;20.60;99.90
6810;DHT22;3443;48.812;9.112;2022-10-18T14:16:40;20.50;99.90
6810;DHT22;3443;48.812;9.112;2022-10-18T14:19:18;20.30;99.90
6810;DHT22;3443;48.812;9.112;2022-10-18T14:21:55;20.20;99.90
6810;DHT22;3443;48.812;9.112;2022-10-18T14:24:25;20.20;99.90
6810;DHT22;3443;48.812;9.112;2022-10-18T14:27:12;20.30;99.90
6810;DHT22;3443;48.812;9.112;2022-10-18T14:29:40;20.30;99.90
6810;DHT22;3443;48.812;9.112;2022-10-18T14:32:22;20.30;99.90
6810;DHT22;3443;48.812;9.112;2022-10-18T14:34:49;20.20;99.90
6810;DHT22;3443;48.812;9.112;2022-10-18T14:37:28;20.10;99.90
6810;DHT22;3443;48.812;9.112;2022-10-18T14:39:54;20.10;99.90
6810;DHT22;3443;48.812;9.112;2022-10-18T14:42:22;20.10;99.90
6810;DHT22;3443;48.812;9.112;2022-10-18T14:44:49;20.00;99.90
6810;DHT22;3443;48.812;9.112;2022-10-18T14:47:28;20.00;99.90
6810;DHT22;3443;48.812;9.112;2022-10-18T14:50:00;20.00;99.90
6810;DHT22;3443;48.812;9.112;2022-10-18T14:52:29;20.00;99.90
6810;DHT22;3443;48.812;9.112;2022-10-18T14:54:55;20.00;99.90
6810;DHT22;3443;48.812;9.112;2022-10-18T14:57:26;20.10;99.90
6810;DHT22;3443;48.812;9.112;2022-10-18T14:59:54;20.20;99.90
6810;DHT22;3443;48.812;9.112;2022-10-18T15:02:27;20.10;99.90
6810;DHT22;3443;48.812;9.112;2022-10-18T15:04:58;20.10;99.90
6810;DHT22;3443;48.812;9.112;2022-10-18T15:07:26;20.10;99.90
6810;DHT22;3443;48.812;9.112;2022-10-18T15:09:55;20.10;99.90
6810;DHT22;3443;48.812;9.112;2022-10-18T15:12:22;20.10;99.90
6810;DHT22;3443;48.812;9.112;2022-10-18T15:14:48;20.10;99.90
6810;DHT22;3443;48.812;9.112;2022-10-18T15:17:27;20.20;99.90
6810;DHT22;3443;48.812;9.112;2022-10-18T15:22:24;19.90;99.90
6810;DHT22;3443;48.812;9.112;2022-10-18T15:25:13;19.90;99.90
6810;DHT22;3443;48.812;9.112;2022-10-18T15:27:40;19.80;99.90
6810;DHT22;3443;48.812;9.112;2022-10-18T15:30:36;19.70;99.90
6810;DHT22;3443;48.812;9.112;2022-10-18T15:33:04;19.70;99.90
6810;DHT22;3443;48.812;9.112;2022-10-18T15:35:35;19.70;99.90
6810;DHT22;3443;48.812;9.112;2022-10-18T15:38:26;19.60;99.90
6810;DHT22;3443;48.812;9.112;2022-10-18T15:40:52;19.60;99.90
6810;DHT22;3443;48.812;9.112;2022-10-18T15:45:55;19.50;99.90
6810;DHT22;3443;48.812;9.112;2022-10-18T15:48:27;19.50;99.90
6810;DHT22;3443;48.812;9.112;2022-10-18T15:50:57;19.40;99.90
6810;DHT22;3443;48.812;9.112;2022-10-18T15:56:06;19.30;99.90
6810;DHT22;3443;48.812;9.112;2022-10-18T15:58:43;19.30;99.90
6810;DHT22;3443;48.812;9.112;2022-10-18T16:03:56;19.30;99.90
6810;DHT22;3443;48.812;9.112;2022-10-18T16:06:22;19.30;99.90
6810;DHT22;3443;48.812;9.112;2022-10-18T16:08:50;19.20;99.90
6810;DHT22;3443;48.812;9.112;2022-10-18T16:11:18;19.20;99.90
6810;DHT22;3443;48.812;9.112;2022-10-18T16:13:45;19.20;99.90
6810;DHT22;3443;48.812;9.112;2022-10-18T16:16:19;19.10;99.90
6810;DHT22;3443;48.812;9.112;2022-10-18T16:18:45;19.10;99.90
6810;DHT22;3443;48.812;9.112;2022-10-18T16:21:24;19.10;99.90
6810;DHT22;3443;48.812;9.112;2022-10-18T16:23:50;19.00;99.90
6810;DHT22;3443;48.812;9.112;2022-10-18T16:26:17;18.90;99.90
6810;DHT22;3443;48.812;9.112;2022-10-18T16:28:44;18.90;99.90
6810;DHT22;3443;48.812;9.112;2022-10-18T16:31:15;18.90;99.90
6810;DHT22;3443;48.812;9.112;2022-10-18T16:33:42;18.90;99.90
6810;DHT22;3443;48.812;9.112;2022-10-18T16:36:11;18.80;99.90
6810;DHT22;3443;48.812;9.112;2022-10-18T16:38:38;18.70;99.90
6810;DHT22;3443;48.812;9.112;2022-10-18T16:41:05;18.60;99.90
6810;DHT22;3443;48.812;9.112;2022-10-18T16:43:33;18.60;99.90
6810;DHT22;3443;48.812;9.112;2022-10-18T16:45:59;18.60;99.90
6810;DHT22;3443;48.812;9.112;2022-10-18T16:48:26;18.60;99.90
6810;DHT22;3443;48.812;9.112;2022-10-18T16:50:53;18.50;99.90
6810;DHT22;3443;48.812;9.112;2022-10-18T16:53:20;18.50;99.90
6810;DHT22;3443;48.812;9.112;2022-10-18T16:55:57;18.50;99.90
6810;DHT22;3443;48.812;9.112;2022-10-18T16:58:24;18.40;99.90
6810;DHT22;3443;48.812;9.112;2022-10-18T17:00:50;18.40;99.90
6810;DHT22;3443;48.812;9.112;2022-10-18T17:03:16;18.30;99.90
6810;DHT22;3443;48.812;9.112;2022-10-18T17:05:42;18.30;99.90
6810;DHT22;3443;48.812;9.112;2022-10-18T17:08:18;18.30;99.90
6810;DHT22;3443;48.812;9.112;2022-10-18T17:10:45;18.20;99.90
6810;DHT22;3443;48.812;9.112;2022-10-18T17:13:11;18.10;99.90
6810;DHT22;3443;48.812;9.112;2022-10-18T17:15:37;18.10;99.90
6810;DHT22;3443;48.812;9.112;2022-10-18T17:18:09;18.10;99.90
6810;DHT22;3443;48.812;9.112;2022-10-18T17:20:35;18.10;99.90
6810;DHT22;3443;48.812;9.112;2022-10-18T17:23:01;18.00;99.90
6810;DHT22;3443;48.812;9.112;2022-10-18T17:25:27;18.00;99.90
6810;DHT22;3443;48.812;9.112;2022-10-18T17:27:52;17.90;99.90
6810;DHT22;3443;48.812;9.112;2022-10-18T17:30:18;17.90;99.90
6810;DHT22;3443;48.812;9.112;2022-10-18T17:32:44;17.80;99.90
6810;DHT22;3443;48.812;9.112;2022-10-18T17:35:11;17.80;99.90
6810;DHT22;3443;48.812;9.112;2022-10-18T17:37:38;17.70;99.90
6810;DHT22;3443;48.812;9.112;2022-10-18T17:40:07;17.60;99.90
6810;DHT22;3443;48.812;9.112;2022-10-18T17:42:33;17.50;99.90
6810;DHT22;3443;48.812;9.112;2022-10-18T17:44:59;17.50;99.90
6810;DHT22;3443;48.812;9.112;2022-10-18T17:47:25;17.50;99.90
6810;DHT22;3443;48.812;9.112;2022-10-18T17:49:50;17.40;99.90
6810;DHT22;3443;48.812;9.112;2022-10-18T17:52:16;17.40;99.90
6810;DHT22;3443;48.812;9.112;2022-10-18T17:54:42;17.30;99.90
6810;DHT22;3443;48.812;9.112;2022-10-18T17:57:07;17.20;99.90
6810;DHT22;3443;48.812;9.112;2022-10-18T17:59:33;17.20;99.90
6810;DHT22;3443;48.812;9.112;2022-10-18T18:01:59;17.10;99.90
6810;DHT22;3443;48.812;9.112;2022-10-18T18:04:24;17.00;99.90
6810;DHT22;3443;48.812;9.112;2022-10-18T18:06:50;17.10;99.90
6810;DHT22;3443;48.812;9.112;2022-10-18T18:09:18;17.00;99.90
6810;DHT22;3443;48.812;9.112;2022-10-18T18:11:45;17.00;99.90
6810;DHT22;3443;48.812;9.112;2022-10-18T18:14:13;17.00;99.90
6810;DHT22;3443;48.812;9.112;2022-10-18T18:16:42;16.90;99.90
6810;DHT22;3443;48.812;9.112;2022-10-18T18:19:09;16.90;99.90
6810;DHT22;3443;48.812;9.112;2022-10-18T18:21:35;16.80;99.90
6810;DHT22;3443;48.812;9.112;2022-10-18T18:24:01;16.80;99.90
6810;DHT22;3443;48.812;9.112;2022-10-18T18:26:30;16.70;99.90
6810;DHT22;3443;48.812;9.112;2022-10-18T18:28:57;16.60;99.90
6810;DHT22;3443;48.812;9.112;2022-10-18T18:31:23;16.50;99.90
6810;DHT22;3443;48.812;9.112;2022-10-18T18:33:50;16.60;99.90
6810;DHT22;3443;48.812;9.112;2022-10-18T18:36:16;16.60;99.90
6810;DHT22;3443;48.812;9.112;2022-10-18T18:38:42;16.50;99.90
6810;DHT22;3443;48.812;9.112;2022-10-18T18:41:13;16.40;99.90
6810;DHT22;3443;48.812;9.112;2022-10-18T18:43:41;16.40;99.90
6810;DHT22;3443;48.812;9.112;2022-10-18T18:46:08;16.40;99.90
6810;DHT22;3443;48.812;9.112;2022-10-18T18:48:35;16.40;99.90
6810;DHT22;3443;48.812;9.112;2022-10-18T18:51:02;16.30;99.90